createdAt,value
2023-02-23T00:01:22.212Z,21.20
2023-02-23T00:03:50.303Z,24.90
2023-02-23T00:06:18.742Z,25.60
2023-02-23T00:08:47.987Z,23.00
2023-02-23T00:11:17.043Z,21.70
2023-02-23T00:13:50.163Z,25.30
2023-02-23T00:16:19.834Z,21.40
2023-02-23T00:18:50.707Z,22.80
2023-02-23T00:21:20.145Z,21.90
2023-02-23T00:23:49.897Z,24.10
2023-02-23T00:26:20.893Z,24.10
2023-02-23T00:28:49.296Z,22.60
2023-02-23T00:31:18.077Z,26.30
2023-02-23T00:33:46.305Z,26.00
2023-02-23T00:36:14.973Z,25.20
2023-02-23T00:38:42.872Z,24.10
2023-02-23T00:41:14.376Z,23.80
2023-02-23T00:43:47.590Z,22.30
2023-02-23T00:46:21.169Z,25.50
2023-02-23T00:48:49.681Z,23.00
2023-02-23T00:51:18.557Z,23.60
2023-02-23T00:53:46.483Z,22.10
2023-02-23T00:56:14.898Z,25.00
2023-02-23T00:58:43.049Z,23.80
2023-02-23T01:01:12.214Z,21.10
2023-02-23T01:03:41.496Z,21.40
2023-02-23T01:06:11.314Z,20.90
2023-02-23T01:08:41.196Z,21.20
2023-02-23T01:12:30.875Z,20.40
2023-02-23T01:14:59.036Z,21.60
2023-02-23T01:17:27.983Z,20.50
2023-02-23T01:19:58.345Z,22.20
2023-02-23T01:22:26.507Z,25.20
2023-02-23T01:24:54.269Z,21.40
2023-02-23T01:27:22.047Z,25.20
2023-02-23T01:29:49.830Z,24.30
2023-02-23T01:32:17.648Z,22.70
2023-02-23T01:34:45.564Z,23.00
2023-02-23T01:37:13.247Z,26.30
2023-02-23T01:39:41.026Z,25.70
2023-02-23T01:42:14.984Z,25.90
2023-02-23T01:44:42.710Z,24.40
2023-02-23T01:47:13.078Z,22.70
2023-02-23T01:49:40.921Z,23.30
2023-02-23T01:52:13.513Z,24.90
2023-02-23T01:54:51.342Z,26.40
2023-02-23T01:57:20.713Z,26.00
2023-02-23T01:59:49.789Z,24.20
2023-02-23T02:02:18.610Z,23.10
2023-02-23T02:04:46.604Z,25.70
2023-02-23T02:07:16.268Z,25.50
2023-02-23T02:10:04.535Z,26.40
2023-02-23T02:12:33.093Z,24.10
2023-02-23T02:15:02.667Z,26.60
2023-02-23T02:17:45.728Z,26.40
2023-02-23T02:20:33.315Z,26.50
2023-02-23T02:23:16.072Z,27.40
2023-02-23T02:25:56.324Z,22.00
2023-02-23T02:28:43.335Z,26.30
2023-02-23T02:31:30.302Z,26.90
2023-02-23T02:34:07.630Z,26.80
2023-02-23T02:36:44.404Z,28.30
2023-02-23T02:39:24.011Z,25.60
2023-02-23T02:42:10.852Z,26.80
2023-02-23T02:44:43.314Z,27.00
2023-02-23T02:47:19.624Z,24.50
2023-02-23T02:49:52.390Z,22.90
2023-02-23T02:52:26.241Z,26.40
2023-02-23T02:54:57.136Z,25.00
2023-02-23T02:57:26.608Z,26.40
2023-02-23T03:00:13.261Z,26.00
2023-02-23T03:02:59.845Z,27.00
2023-02-23T03:05:49.464Z,27.30
2023-02-23T03:08:35.850Z,24.80
2023-02-23T03:11:22.281Z,30.10
2023-02-23T03:14:27.928Z,23.20
2023-02-23T03:17:20.451Z,27.90
2023-02-23T03:20:25.124Z,27.50
2023-02-23T03:23:17.160Z,26.40
2023-02-23T03:26:16.512Z,28.40
2023-02-23T03:29:23.044Z,25.70
2023-02-23T03:32:18.612Z,30.20
2023-02-23T03:35:26.505Z,28.50
2023-02-23T03:38:34.625Z,27.70
2023-02-23T03:41:21.766Z,29.50
2023-02-23T03:44:11.501Z,26.40
2023-02-23T03:46:59.040Z,27.20
2023-02-23T03:49:48.330Z,25.30
2023-02-23T03:52:37.671Z,24.10
2023-02-23T03:55:29.680Z,26.90
2023-02-23T03:58:20.315Z,25.70
2023-02-23T04:01:08.565Z,28.90
2023-02-23T04:03:57.030Z,27.70
2023-02-23T04:06:46.598Z,30.60
2023-02-23T04:09:33.324Z,29.40
2023-02-23T04:12:23.428Z,25.70
2023-02-23T04:15:09.976Z,27.80
2023-02-23T04:17:37.851Z,28.80
2023-02-23T04:20:07.275Z,25.30
2023-02-23T04:22:35.644Z,28.00
2023-02-23T04:25:03.736Z,28.90
2023-02-23T04:27:31.600Z,31.80
2023-02-23T04:29:59.304Z,30.90
2023-02-23T04:32:27.335Z,29.10
2023-02-23T04:34:55.431Z,29.40
2023-02-23T04:37:23.183Z,32.90
2023-02-23T04:39:50.946Z,35.50
2023-02-23T04:42:19.329Z,34.80
2023-02-23T04:44:47.091Z,30.40
2023-02-23T04:47:15.537Z,32.30
2023-02-23T04:49:44.080Z,32.40
2023-02-23T04:52:11.903Z,29.80
2023-02-23T04:54:40.239Z,37.90
2023-02-23T04:57:08.971Z,36.50
2023-02-23T04:59:36.762Z,33.50
2023-02-23T05:02:04.607Z,28.90
2023-02-23T05:04:32.585Z,32.60
2023-02-23T05:07:00.721Z,26.60
2023-02-23T05:09:28.484Z,26.60
2023-02-23T05:11:56.304Z,27.60
2023-02-23T05:14:24.111Z,26.90
2023-02-23T05:16:53.209Z,24.50
2023-02-23T05:19:25.870Z,24.10
2023-02-23T05:21:56.277Z,25.90
2023-02-23T05:24:24.138Z,29.00
2023-02-23T05:26:51.966Z,29.10
2023-02-23T05:29:20.096Z,28.50
2023-02-23T05:31:49.322Z,33.60
2023-02-23T05:34:17.910Z,27.60
2023-02-23T05:36:47.275Z,34.20
2023-02-23T05:39:15.131Z,33.00
2023-02-23T05:41:43.024Z,32.10
2023-02-23T05:44:10.875Z,30.40
2023-02-23T05:46:39.446Z,31.90
2023-02-23T05:49:07.575Z,28.50
2023-02-23T05:51:35.558Z,30.20
2023-02-23T05:54:03.522Z,31.80
2023-02-23T05:56:31.700Z,32.60
2023-02-23T05:58:59.962Z,32.50
2023-02-23T06:01:28.170Z,27.00
2023-02-23T06:03:56.368Z,28.80
2023-02-23T06:06:25.572Z,27.50
2023-02-23T06:08:53.598Z,26.20
2023-02-23T06:11:21.830Z,26.30
2023-02-23T06:13:50.234Z,29.20
2023-02-23T06:16:18.098Z,24.80
2023-02-23T06:18:46.181Z,25.60
2023-02-23T06:21:14.691Z,24.30
2023-02-23T06:23:42.492Z,24.60
2023-02-23T06:26:10.814Z,28.80
2023-02-23T06:28:38.667Z,30.40
2023-02-23T06:31:07.075Z,37.30
2023-02-23T06:33:35.091Z,31.70
2023-02-23T06:36:02.892Z,35.80
2023-02-23T06:38:30.827Z,33.10
2023-02-23T06:40:58.643Z,52.50
2023-02-23T06:43:26.477Z,38.90
2023-02-23T06:45:54.361Z,38.60
2023-02-23T06:48:22.274Z,30.80
2023-02-23T06:50:50.140Z,30.20
2023-02-23T06:53:18.591Z,25.90
2023-02-23T06:55:46.526Z,26.70
2023-02-23T06:58:14.620Z,25.50
2023-02-23T07:00:43.807Z,27.80
2023-02-23T07:03:11.944Z,23.80
2023-02-23T07:05:41.021Z,29.60
2023-02-23T07:08:08.908Z,28.30
2023-02-23T07:10:36.865Z,26.40
2023-02-23T07:13:04.743Z,31.70
2023-02-23T07:15:32.594Z,29.60
2023-02-23T07:18:00.295Z,29.00
2023-02-23T07:20:28.173Z,27.30
2023-02-23T07:22:56.085Z,27.20
2023-02-23T07:25:23.928Z,26.00
2023-02-23T07:27:51.937Z,35.50
2023-02-23T07:30:20.188Z,32.80
2023-02-23T07:32:47.956Z,33.00
2023-02-23T07:35:15.958Z,28.60
2023-02-23T07:37:43.825Z,23.80
2023-02-23T07:40:12.022Z,33.90
2023-02-23T07:42:40.053Z,27.50
2023-02-23T07:45:08.342Z,34.00
2023-02-23T07:47:39.459Z,42.50
2023-02-23T07:50:10.018Z,38.10
2023-02-23T07:52:38.488Z,34.70
2023-02-23T07:55:07.323Z,28.40
2023-02-23T07:57:35.229Z,25.60
2023-02-23T08:00:04.242Z,21.90
2023-02-23T08:02:32.926Z,24.00
2023-02-23T08:05:00.850Z,24.80
2023-02-23T08:07:28.656Z,29.60
2023-02-23T08:09:56.589Z,23.50
2023-02-23T08:12:24.356Z,26.60
2023-02-23T08:14:54.367Z,24.30
2023-02-23T08:17:22.180Z,24.80
2023-02-23T08:19:50.211Z,24.40
2023-02-23T08:22:17.980Z,26.50
2023-02-23T08:24:45.912Z,27.70
2023-02-23T08:27:14.252Z,25.50
2023-02-23T08:29:42.128Z,26.90
2023-02-23T08:32:10.125Z,27.40
2023-02-23T08:34:43.173Z,21.80
2023-02-23T08:37:11.647Z,23.40
2023-02-23T08:39:39.640Z,24.20
2023-02-23T08:42:07.451Z,30.40
2023-02-23T08:44:35.265Z,26.30
2023-02-23T08:47:04.668Z,25.30
2023-02-23T08:49:33.567Z,27.00
2023-02-23T08:52:01.414Z,26.20
2023-02-23T08:54:29.329Z,31.70
2023-02-23T08:56:58.332Z,26.70
2023-02-23T08:59:27.335Z,26.50
2023-02-23T09:01:55.202Z,31.30
2023-02-23T09:04:23.044Z,26.50
2023-02-23T09:06:51.426Z,27.90
2023-02-23T09:09:19.182Z,28.50
2023-02-23T09:11:46.926Z,33.90
2023-02-23T09:14:14.737Z,26.60
2023-02-23T09:16:44.676Z,25.60
2023-02-23T09:19:12.854Z,27.40
2023-02-23T09:21:40.681Z,29.20
2023-02-23T09:24:08.460Z,26.10
2023-02-23T09:26:40.119Z,26.40
2023-02-23T09:29:08.010Z,27.80
2023-02-23T09:31:35.833Z,22.00
2023-02-23T09:34:03.663Z,22.30
2023-02-23T09:36:32.223Z,25.40
2023-02-23T09:39:00.204Z,25.90
2023-02-23T09:41:45.131Z,28.60
2023-02-23T09:44:12.965Z,24.40
2023-02-23T09:46:47.035Z,27.40
2023-02-23T09:49:17.232Z,22.90
2023-02-23T09:51:48.795Z,24.40
2023-02-23T09:54:17.445Z,25.90
2023-02-23T09:56:46.442Z,24.00
2023-02-23T09:59:16.160Z,24.00
2023-02-23T10:01:50.012Z,24.80
2023-02-23T10:04:23.667Z,25.10
2023-02-23T10:07:02.892Z,30.00
2023-02-23T10:09:43.243Z,25.10
2023-02-23T10:12:20.052Z,24.00
2023-02-23T10:15:01.517Z,25.80
2023-02-23T10:17:38.416Z,27.30
2023-02-23T10:20:18.418Z,24.80
2023-02-23T10:22:48.742Z,24.90
2023-02-23T10:25:20.043Z,23.40
2023-02-23T10:27:48.916Z,24.30
2023-02-23T10:30:26.055Z,23.90
2023-02-23T10:32:56.659Z,24.90
2023-02-23T10:35:24.775Z,25.90
2023-02-23T10:37:53.726Z,26.60
2023-02-23T10:40:23.511Z,21.70
2023-02-23T10:42:55.849Z,24.90
2023-02-23T10:45:25.268Z,22.30
2023-02-23T10:47:58.051Z,27.80
2023-02-23T10:50:29.341Z,22.80
2023-02-23T10:52:58.976Z,23.50
2023-02-23T10:55:28.737Z,24.60
2023-02-23T10:58:08.427Z,23.10
2023-02-23T11:00:38.854Z,24.80
2023-02-23T11:03:24.423Z,26.30
2023-02-23T11:05:55.457Z,23.60
2023-02-23T11:08:36.820Z,27.00
2023-02-23T11:11:06.301Z,23.10
2023-02-23T11:13:36.276Z,24.00
2023-02-23T11:16:06.345Z,23.10
2023-02-23T11:18:34.192Z,26.50
2023-02-23T11:21:02.240Z,26.80
2023-02-23T11:23:34.632Z,26.10
2023-02-23T11:26:03.972Z,33.00
2023-02-23T11:28:33.968Z,29.30
2023-02-23T11:31:09.855Z,34.30
2023-02-23T11:33:39.106Z,34.50
2023-02-23T11:36:17.774Z,23.70
2023-02-23T11:38:47.197Z,36.20
2023-02-23T11:41:22.637Z,41.00
2023-02-23T11:43:51.544Z,29.50
2023-02-23T11:46:22.654Z,25.30
2023-02-23T11:49:11.102Z,27.50
2023-02-23T11:51:40.537Z,34.40
2023-02-23T11:54:19.880Z,29.80
2023-02-23T11:56:52.345Z,26.00
2023-02-23T11:59:21.705Z,26.00
2023-02-23T12:01:53.269Z,25.00
2023-02-23T12:04:30.355Z,25.30
2023-02-23T12:07:17.244Z,23.20
2023-02-23T12:09:46.108Z,25.00
2023-02-23T12:12:16.199Z,27.30
2023-02-23T12:14:49.867Z,25.90
2023-02-23T12:17:28.051Z,29.90
2023-02-23T12:19:58.618Z,29.10
2023-02-23T12:22:33.165Z,27.50
2023-02-23T12:25:15.986Z,27.90
2023-02-23T12:27:43.964Z,28.60
2023-02-23T12:30:31.709Z,23.70
2023-02-23T12:33:07.017Z,29.60
2023-02-23T12:35:55.847Z,24.80
2023-02-23T12:38:28.120Z,27.10
2023-02-23T12:40:59.769Z,27.10
2023-02-23T12:43:27.888Z,33.50
2023-02-23T12:46:12.292Z,28.40
2023-02-23T12:48:59.388Z,30.90
2023-02-23T12:51:27.550Z,28.90
2023-02-23T12:53:55.532Z,25.20
2023-02-23T12:56:42.744Z,27.40
2023-02-23T12:59:16.576Z,28.00
2023-02-23T13:01:55.168Z,26.30
2023-02-23T13:04:42.383Z,23.70
2023-02-23T13:07:16.926Z,29.30
2023-02-23T13:09:50.996Z,29.20
2023-02-23T13:12:19.106Z,25.40
2023-02-23T13:15:06.145Z,44.50
2023-02-23T13:17:37.026Z,27.30
2023-02-23T13:20:14.338Z,27.80
2023-02-23T13:23:01.626Z,29.80
2023-02-23T13:25:46.536Z,30.50
2023-02-23T13:28:36.162Z,29.00
2023-02-23T13:31:06.051Z,28.70
2023-02-23T13:33:43.923Z,29.00
2023-02-23T13:36:14.021Z,31.80
2023-02-23T13:39:04.976Z,27.50
2023-02-23T13:41:43.801Z,29.60
2023-02-23T13:44:38.667Z,28.80
2023-02-23T13:47:10.729Z,30.60
2023-02-23T13:49:46.565Z,25.40
2023-02-23T13:52:26.548Z,32.90
2023-02-23T13:54:57.145Z,32.60
2023-02-23T13:57:26.377Z,26.80
2023-02-23T13:59:54.634Z,27.60
2023-02-23T14:02:28.905Z,30.50
2023-02-23T14:04:58.098Z,27.40
2023-02-23T14:07:28.998Z,25.60
2023-02-23T14:09:59.719Z,25.50
2023-02-23T14:12:36.117Z,26.10
2023-02-23T14:15:28.568Z,27.70
2023-02-23T14:18:03.710Z,30.70
2023-02-23T14:20:40.797Z,35.50
2023-02-23T14:23:20.708Z,30.30
2023-02-23T14:25:48.593Z,26.70
2023-02-23T14:28:32.747Z,27.20
2023-02-23T14:31:13.011Z,26.50
2023-02-23T14:33:48.647Z,25.80
2023-02-23T14:36:25.922Z,29.30
2023-02-23T14:38:57.076Z,27.50
2023-02-23T14:41:26.952Z,30.80
2023-02-23T14:44:29.696Z,28.70
2023-02-23T14:46:58.459Z,27.70
2023-02-23T14:49:28.044Z,29.30
2023-02-23T14:51:58.574Z,25.70
2023-02-23T14:54:39.824Z,29.20
2023-02-23T14:57:20.180Z,28.20
2023-02-23T14:59:54.323Z,29.20
2023-02-23T15:02:24.378Z,25.80
2023-02-23T15:04:52.783Z,32.40
2023-02-23T15:07:25.552Z,27.30
2023-02-23T15:09:54.997Z,28.20
2023-02-23T15:12:27.131Z,32.00
2023-02-23T15:14:59.755Z,30.70
2023-02-23T15:17:32.009Z,28.00
2023-02-23T15:20:15.852Z,30.10
2023-02-23T15:22:51.942Z,32.20
2023-02-23T15:25:33.811Z,29.90
2023-02-23T15:28:10.302Z,28.70
2023-02-23T15:30:44.401Z,32.00
2023-02-23T15:33:13.245Z,31.50
2023-02-23T15:35:47.663Z,31.70
2023-02-23T15:38:42.397Z,30.60
2023-02-23T15:41:34.913Z,32.40
2023-02-23T15:44:06.429Z,32.00
2023-02-23T15:46:34.365Z,29.90
2023-02-23T15:49:04.867Z,31.50
2023-02-23T15:51:40.637Z,39.10
2023-02-23T15:54:29.899Z,40.00
2023-02-23T15:57:01.317Z,41.30
2023-02-23T15:59:31.333Z,40.90
2023-02-23T16:02:03.090Z,35.10
2023-02-23T16:04:32.996Z,34.10
2023-02-23T16:07:22.151Z,31.00
2023-02-23T16:09:50.114Z,32.30
2023-02-23T16:12:32.891Z,33.80
2023-02-23T16:15:02.329Z,40.80
2023-02-23T16:17:35.259Z,42.90
2023-02-23T16:20:35.454Z,36.70
2023-02-23T16:23:04.810Z,43.30
2023-02-23T16:25:33.494Z,54.60
2023-02-23T16:28:10.015Z,56.30
2023-02-23T16:30:43.428Z,65.50
2023-02-23T16:33:19.225Z,63.70
2023-02-23T16:35:49.304Z,101.30
2023-02-23T16:38:43.369Z,96.30
2023-02-23T16:41:18.374Z,91.40
2023-02-23T16:43:48.667Z,175.90
2023-02-23T16:46:17.685Z,160.40
2023-02-23T16:48:46.096Z,155.10
2023-02-23T16:51:18.312Z,134.40
2023-02-23T16:53:46.577Z,123.80
2023-02-23T16:56:19.257Z,133.90
2023-02-23T16:58:48.962Z,155.50
2023-02-23T17:01:18.968Z,150.60
2023-02-23T17:04:05.971Z,143.10
2023-02-23T17:06:34.075Z,135.40
2023-02-23T17:09:02.162Z,127.00
2023-02-23T17:11:30.422Z,118.30
2023-02-23T17:13:58.196Z,114.60
2023-02-23T17:16:26.117Z,121.40
2023-02-23T17:18:54.080Z,123.30
2023-02-23T17:21:24.511Z,106.10
2023-02-23T17:23:53.236Z,104.20
2023-02-23T17:26:23.211Z,113.60
2023-02-23T17:28:53.381Z,110.80
2023-02-23T17:31:24.080Z,116.50
2023-02-23T17:33:55.498Z,133.90
2023-02-23T17:36:24.076Z,137.80
2023-02-23T17:38:58.986Z,124.00
2023-02-23T17:48:07.510Z,188.70
2023-02-23T17:50:35.341Z,190.50
2023-02-23T17:53:03.385Z,194.10
2023-02-23T17:55:31.331Z,198.00
2023-02-23T17:57:59.463Z,189.60
2023-02-23T18:00:28.812Z,201.60
2023-02-23T18:02:56.880Z,198.00
2023-02-23T18:05:25.799Z,218.40
2023-02-23T18:07:54.175Z,221.80
2023-02-23T18:10:25.788Z,205.30
2023-02-23T18:12:54.658Z,176.00
2023-02-23T18:15:27.151Z,156.30
2023-02-23T18:17:57.784Z,157.30
2023-02-23T18:20:26.370Z,169.20
2023-02-23T18:22:54.546Z,161.50
2023-02-23T18:25:27.960Z,159.30
2023-02-23T18:27:56.634Z,145.50
2023-02-23T18:30:27.384Z,141.60
2023-02-23T18:32:56.647Z,107.10
2023-02-23T18:35:25.006Z,98.60
2023-02-23T18:37:53.258Z,114.50
2023-02-23T18:40:24.058Z,117.00
2023-02-23T18:42:53.129Z,117.50
2023-02-23T18:45:21.101Z,123.30
2023-02-23T18:47:49.773Z,124.20
2023-02-23T18:50:19.498Z,131.40
2023-02-23T18:52:49.082Z,123.30
2023-02-23T18:55:17.843Z,122.80
2023-02-23T18:57:46.016Z,129.10
2023-02-23T19:00:15.626Z,116.10
2023-02-23T19:02:46.999Z,99.60
2023-02-23T19:05:20.147Z,86.90
2023-02-23T19:07:49.684Z,95.90
2023-02-23T19:10:20.810Z,86.90
2023-02-23T19:12:51.294Z,82.50
2023-02-23T19:15:19.766Z,87.00
2023-02-23T19:17:47.902Z,81.60
2023-02-23T19:20:16.494Z,85.20
2023-02-23T19:22:45.789Z,84.50
2023-02-23T19:25:14.811Z,65.70
2023-02-23T19:27:43.520Z,63.50
2023-02-23T19:30:12.729Z,61.20
2023-02-23T19:32:41.024Z,60.90
2023-02-23T19:35:10.915Z,63.60
2023-02-23T19:37:51.739Z,64.90
2023-02-23T19:40:23.044Z,63.20
2023-02-23T19:42:53.086Z,60.70
2023-02-23T19:45:22.161Z,64.60
2023-02-23T19:47:52.676Z,70.50
2023-02-23T19:50:43.260Z,70.30
2023-02-23T19:53:35.056Z,71.10
2023-02-23T19:56:05.768Z,66.80
2023-02-23T19:58:34.505Z,72.30
2023-02-23T20:01:10.321Z,66.00
2023-02-23T20:03:39.690Z,65.50
2023-02-23T20:06:07.829Z,72.50
2023-02-23T20:08:36.040Z,68.00
2023-02-23T20:11:05.553Z,72.50
2023-02-23T20:13:34.372Z,68.00
2023-02-23T20:16:02.807Z,77.40
2023-02-23T20:18:33.606Z,90.10
2023-02-23T20:21:09.233Z,83.70
2023-02-23T20:23:37.456Z,80.30
2023-02-23T20:26:06.606Z,70.40
2023-02-23T20:28:34.939Z,58.50
2023-02-23T20:31:03.780Z,56.80
2023-02-23T20:33:32.486Z,57.60
2023-02-23T20:36:00.708Z,58.40
2023-02-23T20:38:28.770Z,57.70
2023-02-23T20:40:59.102Z,68.10
2023-02-23T20:43:27.274Z,67.00
2023-02-23T20:45:57.316Z,62.90
2023-02-23T20:48:27.310Z,61.20
2023-02-23T20:50:55.791Z,70.10
2023-02-23T20:53:24.680Z,66.00
2023-02-23T20:55:52.797Z,70.00
2023-02-23T20:58:26.517Z,71.00
2023-02-23T21:01:00.360Z,69.10
2023-02-23T21:03:28.835Z,67.70
2023-02-23T21:05:56.832Z,69.50
2023-02-23T21:08:24.800Z,78.70
2023-02-23T21:10:52.825Z,72.50
2023-02-23T21:13:23.348Z,74.80
2023-02-23T21:15:58.629Z,80.40
2023-02-23T21:18:27.854Z,80.80
2023-02-23T21:20:57.135Z,85.90
2023-02-23T21:23:25.657Z,82.80
2023-02-23T21:26:16.234Z,78.90
2023-02-23T21:28:45.763Z,83.60
2023-02-23T21:31:17.404Z,80.70
2023-02-23T21:33:49.424Z,83.70
2023-02-23T21:36:17.578Z,77.20
2023-02-23T21:38:45.883Z,85.80
2023-02-23T21:41:14.378Z,82.60
2023-02-23T21:43:44.808Z,75.90
2023-02-23T21:46:14.428Z,78.30
2023-02-23T22:01:10.303Z,75.40
2023-02-23T22:03:37.131Z,74.00
2023-02-23T22:06:04.211Z,70.40
2023-02-23T22:08:30.831Z,74.80
2023-02-23T22:10:57.271Z,70.00
2023-02-23T22:13:23.774Z,73.20
2023-02-23T22:15:50.203Z,63.80
2023-02-23T22:18:17.342Z,69.80
2023-02-23T22:20:45.054Z,69.30
2023-02-23T22:23:11.427Z,66.40
2023-02-23T22:25:37.877Z,63.70
2023-02-23T22:28:08.333Z,68.90
2023-02-23T22:30:34.995Z,65.70
2023-02-23T22:33:01.815Z,73.50
2023-02-23T22:35:28.262Z,71.80
2023-02-23T22:37:54.697Z,69.40
2023-02-23T22:46:52.869Z,65.90
2023-02-23T22:49:22.324Z,65.00
2023-02-23T22:51:50.131Z,73.70
2023-02-23T22:54:17.619Z,67.00
2023-02-23T22:56:46.423Z,64.10
2023-02-23T22:59:16.797Z,62.40
2023-02-23T23:01:43.431Z,65.40
2023-02-23T23:04:10.057Z,60.80
2023-02-23T23:06:37.570Z,64.70
2023-02-23T23:09:04.968Z,64.30
2023-02-23T23:11:31.327Z,66.60
2023-02-23T23:14:02.305Z,64.90
2023-02-23T23:16:32.374Z,62.80
2023-02-23T23:19:04.054Z,66.00
2023-02-23T23:21:31.883Z,57.80
2023-02-23T23:23:59.390Z,57.10
2023-02-23T23:26:27.030Z,63.30
2023-02-23T23:28:57.290Z,57.50
2023-02-23T23:31:27.341Z,58.20
2023-02-23T23:33:59.426Z,57.60
2023-02-23T23:36:28.178Z,56.50
2023-02-23T23:38:55.793Z,55.70
2023-02-23T23:41:24.087Z,56.80
2023-02-23T23:43:57.332Z,61.80
2023-02-23T23:46:23.854Z,58.30
2023-02-23T23:48:53.742Z,59.20
2023-02-23T23:51:23.646Z,56.10
2023-02-23T23:53:53.998Z,56.50
2023-02-23T23:56:20.888Z,57.40
2023-02-23T23:58:48.202Z,54.40
